createdAt,value
2023-03-25T00:04:56.136Z,8.47
2023-03-25T00:10:00.358Z,8.49
2023-03-25T00:15:03.019Z,8.51
2023-03-25T00:20:11.098Z,8.50
2023-03-25T00:25:19.080Z,8.51
2023-03-25T00:30:22.029Z,8.52
2023-03-25T00:35:26.108Z,8.52
2023-03-25T00:40:34.760Z,8.46
2023-03-25T00:45:37.440Z,8.46
2023-03-25T00:50:41.953Z,8.39
2023-03-25T00:55:46.023Z,8.38
2023-03-25T01:00:49.640Z,8.35
2023-03-25T01:05:54.680Z,8.24
2023-03-25T01:10:59.258Z,8.14
2023-03-25T01:16:01.895Z,8.11
2023-03-25T01:21:04.968Z,8.04
2023-03-25T01:26:09.175Z,8.09
2023-03-25T01:31:15.069Z,8.17
2023-03-25T01:36:17.768Z,8.20
2023-03-25T01:41:21.656Z,8.24
2023-03-25T01:46:24.280Z,8.29
2023-03-25T01:51:30.385Z,8.31
2023-03-25T01:56:37.298Z,8.35
2023-03-25T02:01:40.009Z,8.36
2023-03-25T02:06:45.173Z,8.34
2023-03-25T02:11:49.262Z,8.37
2023-03-25T02:17:04.867Z,8.36
2023-03-25T02:22:58.744Z,8.34
2023-03-25T02:28:11.688Z,8.36
2023-03-25T02:33:48.314Z,8.38
2023-03-25T02:38:54.878Z,8.34
2023-03-25T02:44:03.359Z,8.29
2023-03-25T02:49:12.740Z,8.27
2023-03-25T02:54:18.079Z,8.21
2023-03-25T02:59:22.154Z,8.23
2023-03-25T03:04:25.119Z,8.17
2023-03-25T03:09:40.828Z,8.16
2023-03-25T03:14:57.525Z,8.05
2023-03-25T03:20:05.211Z,7.75
2023-03-25T03:25:19.371Z,7.43
2023-03-25T03:30:29.915Z,7.26
2023-03-25T03:35:38.445Z,7.16
2023-03-25T03:40:46.219Z,7.10
2023-03-25T03:45:52.827Z,7.09
2023-03-25T03:51:00.669Z,7.12
2023-03-25T03:56:09.151Z,7.17
2023-03-25T04:01:14.958Z,7.15
2023-03-25T04:06:24.539Z,7.14
2023-03-25T04:11:34.193Z,7.12
2023-03-25T04:16:37.599Z,7.11
2023-03-25T04:21:41.570Z,7.08
2023-03-25T04:26:45.471Z,7.06
2023-03-25T04:31:49.716Z,7.07
2023-03-25T04:36:52.610Z,7.03
2023-03-25T04:41:57.283Z,6.97
2023-03-25T04:47:00.967Z,6.93
2023-03-25T04:52:04.370Z,6.90
2023-03-25T04:57:09.678Z,6.90
2023-03-25T05:02:13.594Z,7.06
2023-03-25T05:07:18.801Z,7.12
2023-03-25T05:12:22.755Z,7.20
2023-03-25T05:17:26.284Z,7.25
2023-03-25T05:22:28.811Z,7.34
2023-03-25T05:27:34.012Z,7.36
2023-03-25T05:32:36.989Z,7.24
2023-03-25T05:37:39.594Z,7.18
2023-03-25T05:42:47.111Z,7.14
2023-03-25T05:47:49.843Z,7.19
2023-03-25T05:52:53.706Z,7.28
2023-03-25T05:57:58.822Z,7.29
2023-03-25T06:03:02.359Z,7.36
2023-03-25T06:08:05.125Z,7.33
2023-03-25T06:13:09.071Z,7.21
2023-03-25T06:18:11.677Z,7.02
2023-03-25T06:23:14.250Z,6.87
2023-03-25T06:28:19.378Z,6.70
2023-03-25T06:33:43.122Z,6.70
2023-03-25T06:38:44.704Z,6.80
2023-03-25T06:43:49.640Z,6.72
2023-03-25T06:48:52.249Z,6.59
2023-03-25T06:53:54.873Z,6.59
2023-03-25T06:58:58.787Z,6.74
2023-03-25T07:04:01.415Z,6.77
2023-03-25T07:09:04.282Z,7.13
2023-03-25T07:14:08.280Z,8.12
2023-03-25T07:19:10.896Z,7.75
2023-03-25T07:24:13.483Z,8.05
2023-03-25T07:29:17.445Z,8.15
2023-03-25T07:34:20.060Z,8.21
2023-03-25T07:39:25.197Z,8.24
2023-03-25T07:44:29.194Z,8.04
2023-03-25T07:49:31.933Z,7.70
2023-03-25T07:54:34.586Z,7.41
2023-03-25T07:59:38.541Z,7.45
2023-03-25T08:04:41.354Z,7.63
2023-03-25T08:09:43.977Z,7.81
2023-03-25T08:14:47.973Z,7.78
2023-03-25T08:19:50.797Z,7.61
2023-03-25T08:24:53.371Z,7.56
2023-03-25T08:29:59.254Z,7.65
2023-03-25T08:35:05.205Z,7.93
2023-03-25T08:40:09.763Z,8.19
2023-03-25T08:45:15.282Z,8.57
2023-03-25T08:50:19.024Z,9.34
2023-03-25T08:55:23.367Z,9.58
2023-03-25T09:00:27.385Z,9.05
2023-03-25T09:05:29.965Z,8.85
2023-03-25T09:10:32.687Z,9.03
2023-03-25T09:15:37.038Z,8.98
2023-03-25T09:20:39.781Z,9.26
2023-03-25T09:25:42.968Z,10.14
2023-03-25T09:30:46.952Z,9.33
2023-03-25T09:35:49.949Z,9.10
2023-03-25T09:40:52.842Z,9.75
2023-03-25T09:45:57.714Z,9.37
2023-03-25T09:51:03.912Z,9.01
2023-03-25T09:56:15.102Z,9.64
2023-03-25T10:01:34.767Z,9.84
2023-03-25T10:06:45.666Z,11.59
2023-03-25T10:11:55.258Z,13.13
2023-03-25T10:17:09.391Z,14.22
2023-03-25T10:22:18.225Z,14.10
2023-03-25T10:27:24.193Z,13.13
2023-03-25T10:32:35.823Z,12.90
2023-03-25T10:37:42.773Z,14.15
2023-03-25T10:42:57.105Z,14.83
2023-03-25T10:48:08.517Z,15.45
2023-03-25T10:53:22.001Z,15.15
2023-03-25T10:58:25.427Z,14.45
2023-03-25T11:03:34.445Z,15.58
2023-03-25T11:08:37.212Z,15.90
2023-03-25T11:13:41.281Z,15.00
2023-03-25T11:18:45.686Z,13.12
2023-03-25T11:23:50.527Z,11.80
2023-03-25T11:28:56.079Z,11.79
2023-03-25T11:34:10.872Z,11.78
2023-03-25T11:39:19.277Z,11.12
2023-03-25T11:44:24.950Z,9.96
2023-03-25T11:49:35.391Z,10.26
2023-03-25T11:54:38.858Z,11.13
2023-03-25T11:59:45.993Z,10.18
2023-03-25T12:05:02.951Z,10.24
2023-03-25T12:10:07.983Z,12.13
2023-03-25T12:15:33.392Z,12.18
2023-03-25T12:20:49.987Z,11.13
2023-03-25T12:25:59.645Z,10.44
2023-03-25T12:31:11.314Z,10.10
2023-03-25T12:36:30.682Z,10.34
2023-03-25T12:41:40.926Z,11.78
2023-03-25T12:47:02.153Z,12.40
2023-03-25T12:52:21.818Z,11.25
2023-03-25T12:57:36.828Z,10.84
2023-03-25T13:03:12.540Z,11.45
2023-03-25T13:08:20.397Z,11.69
2023-03-25T13:13:25.820Z,12.84
2023-03-25T13:18:33.029Z,13.61
2023-03-25T13:23:40.118Z,13.08
2023-03-25T13:28:46.855Z,13.16
2023-03-25T13:33:54.883Z,12.48
2023-03-25T13:39:02.656Z,12.17
2023-03-25T13:44:08.862Z,11.82
2023-03-25T13:49:17.843Z,11.60
2023-03-25T13:54:27.745Z,12.56
2023-03-25T14:00:05.843Z,13.37
2023-03-25T14:05:39.428Z,12.77
2023-03-25T14:10:54.646Z,12.32
2023-03-25T14:16:02.792Z,12.78
2023-03-25T14:21:15.985Z,12.16
2023-03-25T14:26:20.328Z,12.01
2023-03-25T14:31:31.754Z,12.94
2023-03-25T14:37:09.652Z,12.59
2023-03-25T14:42:28.787Z,12.11
2023-03-25T14:47:35.389Z,13.07
2023-03-25T14:52:41.544Z,12.87
2023-03-25T14:57:46.804Z,12.20
2023-03-25T15:02:53.601Z,11.90
2023-03-25T15:08:00.348Z,10.98
2023-03-25T15:13:07.423Z,10.97
2023-03-25T15:18:10.617Z,10.71
2023-03-25T15:23:33.267Z,10.53
2023-03-25T15:29:02.519Z,10.25
2023-03-25T15:34:25.366Z,10.04
2023-03-25T15:39:42.654Z,9.98
2023-03-25T15:45:01.862Z,9.87
2023-03-25T15:50:34.125Z,9.61
2023-03-25T15:55:40.342Z,9.19
2023-03-25T16:00:48.533Z,7.79
2023-03-25T16:05:55.693Z,7.21
2023-03-25T16:10:58.301Z,7.02
2023-03-25T16:16:02.606Z,7.17
2023-03-25T16:21:05.686Z,7.42
2023-03-25T16:26:08.378Z,7.34
2023-03-25T16:31:34.490Z,7.27
2023-03-25T16:36:37.473Z,7.22
2023-03-25T16:41:44.415Z,7.53
2023-03-25T16:46:48.968Z,7.57
2023-03-25T16:51:52.506Z,7.50
2023-03-25T16:56:56.924Z,7.50
2023-03-25T17:02:02.425Z,7.58
2023-03-25T17:07:12.475Z,7.61
2023-03-25T17:12:19.254Z,7.53
2023-03-25T17:17:35.934Z,7.63
2023-03-25T17:22:40.646Z,7.66
2023-03-25T17:27:43.703Z,7.71
2023-03-25T17:32:49.051Z,7.66
2023-03-25T17:37:51.999Z,7.70
2023-03-25T17:42:55.347Z,7.69
2023-03-25T17:47:59.343Z,7.65
2023-03-25T17:53:01.974Z,7.59
2023-03-25T17:58:04.957Z,7.49
2023-03-25T18:03:13.441Z,7.27
2023-03-25T18:08:16.560Z,7.16
2023-03-25T18:13:21.599Z,7.18
2023-03-25T18:18:27.446Z,7.15
2023-03-25T18:23:31.412Z,6.97
2023-03-25T18:28:35.901Z,6.99
2023-03-25T18:33:39.870Z,6.87
2023-03-25T18:38:43.378Z,6.73
2023-03-25T18:43:46.094Z,6.66
2023-03-25T18:48:50.016Z,6.52
2023-03-25T18:53:52.571Z,6.43
2023-03-25T18:58:55.129Z,6.35
2023-03-25T19:04:02.507Z,6.40
2023-03-25T19:09:05.693Z,6.35
2023-03-25T19:14:08.330Z,6.34
2023-03-25T19:19:13.425Z,6.28
2023-03-25T19:24:16.088Z,6.32
2023-03-25T19:29:18.714Z,6.58
2023-03-25T19:34:23.071Z,6.66
2023-03-25T19:39:25.868Z,6.72
2023-03-25T19:44:29.484Z,6.68
2023-03-25T19:49:39.920Z,6.71
2023-03-25T19:54:42.991Z,6.81
2023-03-25T19:59:45.621Z,6.80
2023-03-25T20:04:49.531Z,6.68
2023-03-25T20:09:53.292Z,6.67
2023-03-25T20:14:55.870Z,6.69
2023-03-25T20:20:00.041Z,6.58
2023-03-25T20:25:03.365Z,6.59
2023-03-25T20:30:08.228Z,6.65
2023-03-25T20:35:14.042Z,6.74
2023-03-25T20:40:19.063Z,6.89
2023-03-25T20:45:22.403Z,6.99
2023-03-25T20:50:27.165Z,7.08
2023-03-25T20:55:29.739Z,7.04
2023-03-25T21:00:32.436Z,6.85
2023-03-25T21:05:40.557Z,6.69
2023-03-25T21:10:47.573Z,6.64
2023-03-25T21:15:54.331Z,6.77
2023-03-25T21:21:03.190Z,6.90
2023-03-25T21:26:09.265Z,6.94
2023-03-25T21:31:16.911Z,6.93
2023-03-25T21:36:22.545Z,6.96
2023-03-25T21:41:27.044Z,7.02
2023-03-25T21:46:29.655Z,7.05
2023-03-25T21:51:36.067Z,7.05
2023-03-25T21:56:42.118Z,7.03
2023-03-25T22:01:45.496Z,6.98
2023-03-25T22:06:52.157Z,6.95
2023-03-25T22:11:55.636Z,6.90
2023-03-25T22:16:58.415Z,6.91
2023-03-25T22:22:02.992Z,6.93
2023-03-25T22:27:05.570Z,6.85
2023-03-25T22:32:08.154Z,6.68
2023-03-25T22:37:12.095Z,6.54
2023-03-25T22:42:14.690Z,6.55
2023-03-25T22:47:17.314Z,6.60
2023-03-25T22:52:21.327Z,6.60
2023-03-25T22:57:23.921Z,6.46
2023-03-25T23:02:26.731Z,6.28
2023-03-25T23:07:30.728Z,6.12
2023-03-25T23:12:33.294Z,6.18
2023-03-25T23:17:36.346Z,6.31
2023-03-25T23:22:41.515Z,6.42
2023-03-25T23:27:46.079Z,6.56
2023-03-25T23:32:48.759Z,6.62
2023-03-25T23:37:53.462Z,6.65
2023-03-25T23:42:56.051Z,6.67
2023-03-25T23:48:06.440Z,6.66
2023-03-25T23:53:10.376Z,6.70
2023-03-25T23:58:15.411Z,6.72
